Saint Paris, Ohio
Current Conditions -  °F | °C
As of 1:10 PM on Thursday 18 Dec 2014 (Local Time) from KEDJ Reporting Station
Overcast Overcast  
Wind Chill: 20°   Ceiling: 1400
Heat Index: 27°   Visibility: 10mi
Dew Point: 21°   Wind: 6mph
Humidity: 80%   Direction: 250°WSW
Pressure: 30.2"   Gusts: NA
Location:  40.13°N, 83.96°W
Report Text: KEDJ 181810Z AUTO 25005KT 10SM OVC014 M03/M06 A3020 RMK AO1
Loading
Personal Weather Stations






























Interactive Weather Map New forecast layout! Learn more

10-Day Weather Forecast

Advertisements
Track Severe Weather on mobile